createdAt,value
2018-09-27T00:01:22.107Z,73.50
2018-09-27T00:03:52.117Z,73.70
2018-09-27T00:06:21.977Z,73.60
2018-09-27T00:08:51.758Z,73.50
2018-09-27T00:11:21.667Z,73.60
2018-09-27T00:13:51.790Z,74.00
2018-09-27T00:16:21.671Z,74.00
2018-09-27T00:18:51.551Z,73.90
2018-09-27T00:21:21.637Z,74.40
2018-09-27T00:23:51.425Z,74.20
2018-09-27T00:26:21.353Z,74.30
2018-09-27T00:28:51.271Z,75.00
2018-09-27T00:31:20.874Z,74.10
2018-09-27T00:33:50.976Z,74.00
2018-09-27T00:36:20.524Z,73.90
2018-09-27T00:38:50.205Z,74.10
2018-09-27T00:41:19.938Z,74.40
2018-09-27T00:43:49.922Z,74.60
2018-09-27T00:46:19.454Z,74.80
2018-09-27T00:48:49.446Z,74.70
2018-09-27T00:51:19.467Z,75.00
2018-09-27T00:53:49.368Z,74.80
2018-09-27T00:56:19.026Z,74.80
2018-09-27T00:58:48.701Z,75.10
2018-09-27T01:01:18.870Z,75.30
2018-09-27T01:03:48.902Z,75.50
2018-09-27T01:06:19.005Z,75.80
2018-09-27T01:08:48.579Z,76.10
2018-09-27T01:11:18.141Z,76.60
2018-09-27T01:13:47.831Z,75.30
2018-09-27T01:16:17.231Z,76.20
2018-09-27T01:18:47.096Z,76.70
2018-09-27T01:21:16.784Z,77.60
2018-09-27T01:23:46.209Z,76.50
2018-09-27T01:26:15.540Z,76.90
2018-09-27T01:28:45.373Z,76.80
2018-09-27T01:31:14.789Z,76.80
2018-09-27T01:33:44.336Z,77.10
2018-09-27T01:36:13.879Z,76.90
2018-09-27T01:38:43.417Z,76.90
2018-09-27T01:41:12.771Z,77.20
2018-09-27T01:43:42.236Z,77.50
2018-09-27T01:46:11.615Z,77.90
2018-09-27T01:48:41.058Z,77.90
2018-09-27T01:51:10.357Z,77.90
2018-09-27T01:53:39.796Z,78.40
2018-09-27T01:56:09.138Z,78.50
2018-09-27T01:58:38.483Z,78.40
2018-09-27T02:01:08.853Z,78.50
2018-09-27T02:03:38.179Z,78.80
2018-09-27T02:06:07.588Z,78.80
2018-09-27T02:08:36.905Z,78.90
2018-09-27T02:11:06.337Z,79.20
2018-09-27T02:13:35.738Z,79.40
2018-09-27T02:16:05.092Z,79.30
2018-09-27T02:18:34.404Z,79.50
2018-09-27T02:21:03.701Z,79.70
2018-09-27T02:23:33.048Z,79.60
2018-09-27T02:26:02.344Z,79.90
2018-09-27T02:28:31.673Z,80.00
2018-09-27T02:31:01.219Z,80.30
2018-09-27T02:33:30.550Z,80.50
2018-09-27T02:35:59.941Z,80.30
2018-09-27T02:38:29.219Z,80.20
2018-09-27T02:40:58.730Z,80.50
2018-09-27T02:43:28.078Z,80.50
2018-09-27T02:45:57.491Z,80.50
2018-09-27T02:48:26.836Z,80.80
2018-09-27T02:50:56.322Z,80.90
2018-09-27T02:53:25.724Z,80.90
2018-09-27T02:55:55.210Z,80.70
2018-09-27T02:58:24.590Z,80.80
2018-09-27T03:00:54.097Z,80.80
2018-09-27T03:03:23.665Z,81.20
2018-09-27T03:05:53.223Z,81.20
2018-09-27T03:08:22.833Z,81.00
2018-09-27T03:10:52.345Z,81.10
2018-09-27T03:13:21.876Z,81.00
2018-09-27T03:15:51.921Z,80.90
2018-09-27T03:18:21.872Z,80.90
2018-09-27T03:20:51.515Z,81.40
2018-09-27T03:23:21.054Z,81.20
2018-09-27T03:25:50.629Z,80.70
2018-09-27T03:28:20.052Z,80.30
2018-09-27T03:30:50.019Z,79.50
2018-09-27T03:33:19.619Z,79.40
2018-09-27T03:35:49.076Z,79.30
2018-09-27T03:38:18.707Z,79.40
2018-09-27T03:40:48.258Z,79.60
2018-09-27T03:43:17.658Z,79.40
2018-09-27T03:45:47.163Z,78.10
2018-09-27T03:48:17.106Z,78.30
2018-09-27T03:50:46.668Z,77.70
2018-09-27T03:53:17.255Z,77.50
2018-09-27T03:55:46.715Z,77.40
2018-09-27T03:58:16.107Z,77.70
2018-09-27T04:00:46.067Z,77.40
2018-09-27T04:03:15.854Z,77.50
2018-09-27T04:05:45.719Z,77.80
2018-09-27T04:08:15.446Z,77.30
2018-09-27T04:10:45.335Z,78.20
2018-09-27T04:13:15.083Z,77.00
2018-09-27T04:15:44.819Z,76.90
2018-09-27T04:18:14.636Z,77.50
2018-09-27T04:20:50.105Z,76.70
2018-09-27T04:23:20.915Z,76.90
2018-09-27T04:25:51.176Z,77.00
2018-09-27T04:28:21.406Z,76.60
2018-09-27T04:30:51.146Z,76.70
2018-09-27T04:33:20.577Z,77.20
2018-09-27T04:35:50.074Z,77.20
2018-09-27T04:38:19.555Z,77.50
2018-09-27T04:40:49.137Z,77.10
2018-09-27T04:43:19.240Z,77.50
2018-09-27T04:45:48.977Z,76.70
2018-09-27T04:48:18.691Z,76.60
2018-09-27T04:50:48.809Z,76.70
2018-09-27T04:53:18.677Z,76.00
2018-09-27T04:55:48.926Z,75.80
2018-09-27T04:58:18.609Z,76.50
2018-09-27T05:00:48.682Z,77.00
2018-09-27T05:03:18.249Z,77.10
2018-09-27T05:05:47.887Z,76.90
2018-09-27T05:08:17.505Z,77.20
2018-09-27T05:10:47.569Z,76.40
2018-09-27T05:13:17.143Z,76.40
2018-09-27T05:15:46.993Z,76.20
2018-09-27T05:18:16.940Z,76.30
2018-09-27T05:20:46.979Z,76.10
2018-09-27T05:23:17.103Z,76.20
2018-09-27T05:25:47.043Z,76.20
2018-09-27T05:28:17.037Z,76.00
2018-09-27T05:30:46.949Z,76.80
2018-09-27T05:33:16.998Z,76.80
2018-09-27T05:35:57.640Z,75.60
2018-09-27T05:38:27.325Z,75.20
2018-09-27T05:40:56.700Z,76.70
2018-09-27T05:43:26.094Z,76.70
2018-09-27T05:45:55.560Z,76.60
2018-09-27T05:48:25.149Z,74.60
2018-09-27T05:50:54.701Z,74.30
2018-09-27T05:53:24.673Z,73.80
2018-09-27T05:55:54.089Z,73.60
2018-09-27T05:58:23.750Z,73.30
2018-09-27T06:00:53.095Z,73.00
2018-09-27T06:03:22.511Z,73.30
2018-09-27T06:05:51.953Z,72.30
2018-09-27T06:08:21.853Z,72.60
2018-09-27T06:10:51.450Z,73.10
2018-09-27T06:13:20.876Z,71.70
2018-09-27T06:15:50.489Z,72.00
2018-09-27T06:18:19.886Z,70.70
2018-09-27T06:20:49.485Z,71.60
2018-09-27T06:23:18.931Z,71.40
2018-09-27T06:25:48.433Z,70.80
2018-09-27T06:28:17.809Z,71.60
2018-09-27T06:30:47.312Z,72.30
2018-09-27T06:33:17.029Z,70.80
2018-09-27T06:35:46.451Z,70.80
2018-09-27T06:38:15.925Z,70.90
2018-09-27T06:40:45.632Z,70.50
2018-09-27T06:43:15.178Z,69.70
2018-09-27T06:45:44.787Z,69.90
2018-09-27T06:48:14.464Z,69.80
2018-09-27T06:50:44.220Z,70.40
2018-09-27T06:53:13.837Z,70.90
2018-09-27T06:55:43.984Z,69.90
2018-09-27T06:58:13.690Z,68.80
2018-09-27T07:00:43.590Z,69.30
2018-09-27T07:03:13.548Z,69.60
2018-09-27T07:05:43.405Z,68.70
2018-09-27T07:08:13.204Z,68.30
2018-09-27T07:10:43.327Z,68.60
2018-09-27T07:13:13.184Z,69.80
2018-09-27T07:15:43.330Z,68.20
2018-09-27T07:18:13.209Z,68.30
2018-09-27T07:20:43.107Z,65.80
2018-09-27T07:23:13.061Z,64.10
2018-09-27T07:25:43.247Z,62.80
2018-09-27T07:28:13.200Z,62.60
2018-09-27T07:30:43.243Z,62.90
2018-09-27T07:33:13.566Z,60.20
2018-09-27T07:35:43.611Z,60.80
2018-09-27T07:38:13.619Z,58.70
2018-09-27T07:40:43.498Z,56.20
2018-09-27T07:43:13.608Z,56.20
2018-09-27T07:45:43.602Z,55.20
2018-09-27T07:48:13.375Z,56.70
2018-09-27T07:50:43.335Z,56.30
2018-09-27T07:53:13.385Z,55.60
2018-09-27T07:55:43.386Z,55.80
2018-09-27T07:58:13.209Z,56.50
2018-09-27T08:00:43.299Z,55.10
2018-09-27T08:03:13.254Z,55.70
2018-09-27T08:05:43.396Z,56.40
2018-09-27T08:08:13.338Z,52.90
2018-09-27T08:10:43.749Z,53.60
2018-09-27T08:13:13.624Z,52.90
2018-09-27T08:15:43.376Z,54.50
2018-09-27T08:18:13.021Z,51.80
2018-09-27T08:20:42.940Z,53.00
2018-09-27T08:23:13.037Z,51.20
2018-09-27T08:25:43.408Z,51.60
2018-09-27T08:28:13.366Z,52.30
2018-09-27T08:30:43.568Z,52.80
2018-09-27T08:33:13.591Z,51.30
2018-09-27T08:35:43.649Z,51.50
2018-09-27T08:38:13.746Z,51.30
2018-09-27T08:40:43.403Z,49.20
2018-09-27T08:43:13.197Z,47.50
2018-09-27T08:45:43.166Z,49.90
2018-09-27T08:48:13.119Z,48.80
2018-09-27T08:50:43.171Z,47.90
2018-09-27T08:53:13.352Z,48.20
2018-09-27T08:55:43.396Z,45.30
2018-09-27T08:58:13.136Z,46.10
2018-09-27T09:00:43.140Z,44.00
2018-09-27T09:03:13.293Z,43.70
2018-09-27T09:05:43.044Z,45.40
2018-09-27T09:08:13.395Z,42.70
2018-09-27T09:10:43.276Z,46.10
2018-09-27T09:13:12.954Z,46.80
2018-09-27T09:15:42.855Z,43.60
2018-09-27T09:18:12.731Z,44.70
2018-09-27T09:20:42.233Z,42.00
2018-09-27T09:23:12.437Z,44.90
2018-09-27T09:25:42.339Z,44.10
2018-09-27T09:28:12.438Z,42.20
2018-09-27T09:30:42.176Z,39.50
2018-09-27T09:33:12.075Z,40.70
2018-09-27T09:35:42.445Z,42.20
2018-09-27T09:38:12.308Z,41.00
2018-09-27T09:40:42.338Z,40.60
2018-09-27T09:43:12.001Z,40.40
2018-09-27T09:45:42.072Z,42.00
2018-09-27T09:48:12.766Z,39.10
2018-09-27T09:50:42.645Z,38.80
2018-09-27T09:53:13.048Z,39.80
2018-09-27T09:55:43.030Z,40.20
2018-09-27T09:58:13.058Z,42.70
2018-09-27T10:00:43.268Z,40.90
2018-09-27T10:03:13.188Z,42.20
2018-09-27T10:05:43.456Z,38.20
2018-09-27T10:08:13.455Z,41.40
2018-09-27T10:10:43.536Z,40.70
2018-09-27T10:13:13.757Z,39.40
2018-09-27T10:15:43.897Z,39.20
2018-09-27T10:18:13.615Z,39.50
2018-09-27T10:20:43.599Z,37.90
2018-09-27T10:23:13.593Z,41.20
2018-09-27T10:25:43.634Z,39.50
2018-09-27T10:28:13.343Z,39.70
2018-09-27T10:30:42.915Z,42.50
2018-09-27T10:33:12.797Z,39.60
2018-09-27T10:35:43.565Z,38.40
2018-09-27T10:38:13.176Z,42.30
2018-09-27T10:40:43.208Z,40.90
2018-09-27T10:43:13.079Z,40.80
2018-09-27T10:45:43.295Z,40.60
2018-09-27T10:48:13.293Z,42.40
2018-09-27T10:50:43.104Z,42.30
2018-09-27T10:53:12.616Z,42.40
2018-09-27T10:55:42.610Z,44.90
2018-09-27T10:58:12.494Z,43.50
2018-09-27T11:00:43.497Z,43.30
2018-09-27T11:03:13.279Z,45.30
2018-09-27T11:05:43.061Z,44.50
2018-09-27T11:08:12.992Z,45.10
2018-09-27T11:10:43.119Z,43.30
2018-09-27T11:13:13.029Z,45.00
2018-09-27T11:15:42.940Z,43.20
2018-09-27T11:18:12.868Z,44.10
2018-09-27T11:20:42.761Z,42.10
2018-09-27T11:23:12.485Z,44.80
2018-09-27T11:25:42.584Z,44.40
2018-09-27T11:28:12.512Z,43.20
2018-09-27T11:30:42.447Z,44.60
2018-09-27T11:33:12.558Z,42.50
2018-09-27T11:35:42.755Z,42.20
2018-09-27T11:38:12.636Z,43.00
2018-09-27T11:40:42.315Z,43.50
2018-09-27T11:43:12.310Z,44.20
2018-09-27T11:45:42.122Z,43.20
2018-09-27T11:48:11.849Z,44.30
2018-09-27T11:50:41.754Z,42.60
2018-09-27T11:53:11.842Z,44.50
2018-09-27T11:55:41.877Z,45.20
2018-09-27T11:58:11.714Z,45.00
2018-09-27T12:00:41.492Z,43.20
2018-09-27T12:03:11.633Z,45.40
2018-09-27T12:05:41.561Z,45.20
2018-09-27T12:08:11.785Z,41.60
2018-09-27T12:10:42.193Z,42.90
2018-09-27T12:13:12.254Z,40.30
2018-09-27T12:15:42.243Z,43.60
2018-09-27T12:18:12.251Z,43.10
2018-09-27T12:20:42.224Z,42.60
2018-09-27T12:23:12.072Z,45.50
2018-09-27T12:25:42.073Z,45.50
2018-09-27T12:28:12.213Z,44.60
2018-09-27T12:30:42.501Z,42.90
2018-09-27T12:33:12.709Z,43.80
2018-09-27T12:35:42.846Z,43.50
2018-09-27T12:38:12.912Z,43.80
2018-09-27T12:40:42.947Z,41.70
2018-09-27T12:43:12.995Z,41.00
2018-09-27T12:45:42.735Z,41.10
2018-09-27T12:48:12.812Z,43.40
2018-09-27T12:50:43.052Z,44.30
2018-09-27T12:53:13.000Z,43.70
2018-09-27T12:55:42.834Z,43.90
2018-09-27T12:58:12.772Z,40.80
2018-09-27T13:00:42.857Z,40.60
2018-09-27T13:03:12.944Z,40.70
2018-09-27T13:05:42.917Z,35.20
2018-09-27T13:08:12.854Z,33.10
2018-09-27T13:10:42.818Z,37.50
2018-09-27T13:13:12.756Z,40.80
2018-09-27T13:15:42.925Z,42.90
2018-09-27T13:18:12.713Z,42.00
2018-09-27T13:20:43.310Z,42.40
2018-09-27T13:23:13.138Z,42.60
2018-09-27T13:25:43.502Z,45.10
2018-09-27T13:28:13.474Z,44.00
2018-09-27T13:30:43.432Z,43.60
2018-09-27T13:33:13.523Z,45.40
2018-09-27T13:35:43.428Z,43.50
2018-09-27T13:38:13.331Z,43.50
2018-09-27T13:40:43.084Z,44.10
2018-09-27T13:43:12.937Z,42.80
2018-09-27T13:45:43.278Z,42.80
2018-09-27T13:48:13.122Z,43.50
2018-09-27T13:50:43.059Z,42.80
2018-09-27T13:53:12.914Z,43.00
2018-09-27T13:55:42.965Z,43.70
2018-09-27T13:58:12.732Z,43.00
2018-09-27T14:00:42.724Z,44.50
2018-09-27T14:03:12.542Z,45.20
2018-09-27T14:05:42.325Z,42.30
2018-09-27T14:08:12.322Z,40.20
2018-09-27T14:10:42.120Z,41.40
2018-09-27T14:13:12.130Z,41.60
2018-09-27T14:15:42.761Z,41.00
2018-09-27T14:18:12.506Z,42.20
2018-09-27T14:20:42.262Z,41.40
2018-09-27T14:23:12.201Z,42.60
2018-09-27T14:25:41.985Z,43.30
2018-09-27T14:28:12.090Z,42.90
2018-09-27T14:30:42.349Z,43.80
2018-09-27T14:33:12.351Z,42.70
2018-09-27T14:35:42.076Z,43.20
2018-09-27T14:38:14.972Z,42.90
2018-09-27T14:40:44.724Z,42.20
2018-09-27T14:43:14.301Z,43.40
2018-09-27T14:45:43.926Z,41.00
2018-09-27T14:48:13.363Z,43.10
2018-09-27T14:50:43.240Z,43.00
2018-09-27T14:53:13.157Z,42.60
2018-09-27T14:55:43.078Z,42.90
2018-09-27T14:58:13.063Z,42.30
2018-09-27T15:00:43.091Z,42.00
2018-09-27T15:03:12.909Z,42.80
2018-09-27T15:05:43.024Z,42.60
2018-09-27T15:08:13.112Z,42.60
2018-09-27T15:10:43.735Z,43.80
2018-09-27T15:13:13.542Z,43.20
2018-09-27T15:15:43.671Z,42.90
2018-09-27T15:18:13.647Z,43.90
2018-09-27T15:20:43.602Z,43.60
2018-09-27T15:23:13.388Z,44.30
2018-09-27T15:25:43.405Z,45.70
2018-09-27T15:28:13.482Z,45.80
2018-09-27T15:30:43.264Z,46.10
2018-09-27T15:33:13.257Z,46.60
2018-09-27T15:35:42.997Z,47.80
2018-09-27T15:38:13.361Z,47.50
2018-09-27T15:40:43.090Z,47.80
2018-09-27T15:43:13.505Z,49.10
2018-09-27T15:45:43.343Z,49.20
2018-09-27T15:48:13.104Z,50.10
2018-09-27T15:50:43.265Z,49.80
2018-09-27T15:53:13.263Z,49.40
2018-09-27T15:55:43.167Z,50.50
2018-09-27T15:58:13.101Z,51.30
2018-09-27T16:00:43.074Z,51.50
2018-09-27T16:03:13.144Z,51.80
2018-09-27T16:05:42.811Z,51.00
2018-09-27T16:08:12.732Z,50.80
2018-09-27T16:10:42.648Z,51.80
2018-09-27T16:13:12.588Z,53.00
2018-09-27T16:15:42.912Z,53.00
2018-09-27T16:18:12.950Z,53.90
2018-09-27T16:20:42.948Z,54.80
2018-09-27T16:23:13.060Z,54.90
2018-09-27T16:25:43.136Z,55.10
2018-09-27T16:28:13.229Z,55.40
2018-09-27T16:30:43.390Z,55.40
2018-09-27T16:33:13.467Z,55.30
2018-09-27T16:35:43.571Z,55.90
2018-09-27T16:38:13.582Z,56.30
2018-09-27T16:40:43.408Z,56.40
2018-09-27T16:43:13.224Z,56.70
2018-09-27T16:45:43.427Z,57.40
2018-09-27T16:48:13.129Z,56.90
2018-09-27T16:50:42.968Z,57.50
2018-09-27T16:53:13.073Z,58.40
2018-09-27T16:55:42.741Z,58.50
2018-09-27T16:58:12.541Z,58.80
2018-09-27T17:00:42.435Z,59.10
2018-09-27T17:03:12.298Z,59.30
2018-09-27T17:05:42.160Z,59.80
2018-09-27T17:08:12.302Z,60.40
2018-09-27T17:10:42.257Z,60.60
2018-09-27T17:13:12.279Z,61.10
2018-09-27T17:15:42.504Z,61.20
2018-09-27T17:18:12.440Z,62.10
2018-09-27T17:20:42.820Z,63.00
2018-09-27T17:23:12.829Z,64.00
2018-09-27T17:25:42.737Z,64.20
2018-09-27T17:28:12.636Z,64.50
2018-09-27T17:30:42.794Z,65.20
2018-09-27T17:33:12.993Z,65.60
2018-09-27T17:35:42.932Z,66.50
2018-09-27T17:38:12.734Z,66.60
2018-09-27T17:40:43.031Z,67.30
2018-09-27T17:43:13.221Z,67.70
2018-09-27T17:45:42.977Z,67.90
2018-09-27T17:48:13.012Z,68.40
2018-09-27T17:50:43.097Z,68.20
2018-09-27T17:53:12.979Z,68.60
2018-09-27T17:55:43.072Z,68.80
2018-09-27T17:58:12.959Z,68.80
2018-09-27T18:00:42.862Z,68.70
2018-09-27T18:03:12.901Z,69.10
2018-09-27T18:05:43.439Z,69.20
2018-09-27T18:08:13.213Z,69.30
2018-09-27T18:10:43.315Z,69.60
2018-09-27T18:13:13.146Z,70.30
2018-09-27T18:15:43.226Z,69.60
2018-09-27T18:18:12.700Z,69.90
2018-09-27T18:20:42.409Z,70.70
2018-09-27T18:23:12.368Z,69.60
2018-09-27T18:25:42.422Z,70.40
2018-09-27T18:28:12.562Z,70.10
2018-09-27T18:30:42.160Z,70.40
2018-09-27T18:33:12.195Z,70.40
2018-09-27T18:35:41.974Z,70.50
2018-09-27T18:38:12.004Z,70.80
2018-09-27T18:40:41.632Z,70.70
2018-09-27T18:43:11.624Z,70.50
2018-09-27T18:45:41.574Z,71.20
2018-09-27T18:48:11.450Z,70.00
2018-09-27T18:50:41.524Z,70.50
2018-09-27T18:53:11.699Z,70.40
2018-09-27T18:55:42.198Z,70.70
2018-09-27T18:58:12.171Z,70.50
2018-09-27T19:00:41.961Z,70.90
2018-09-27T19:03:12.163Z,69.40
2018-09-27T19:05:42.591Z,70.60
2018-09-27T19:08:12.621Z,70.70
2018-09-27T19:10:42.678Z,70.80
2018-09-27T19:13:12.653Z,70.70
2018-09-27T19:15:42.575Z,70.10
2018-09-27T19:18:12.627Z,70.60
2018-09-27T19:20:42.661Z,70.80
2018-09-27T19:23:12.620Z,70.50
2018-09-27T19:25:42.568Z,71.10
2018-09-27T19:28:12.572Z,71.30
2018-09-27T19:30:42.578Z,71.50
2018-09-27T19:33:12.626Z,71.50
2018-09-27T19:35:42.309Z,71.60
2018-09-27T19:38:12.302Z,71.90
2018-09-27T19:40:42.203Z,72.10
2018-09-27T19:43:12.567Z,72.40
2018-09-27T19:45:42.476Z,72.60
2018-09-27T19:48:12.734Z,72.50
2018-09-27T19:50:42.720Z,72.60
2018-09-27T19:53:12.658Z,72.60
2018-09-27T19:55:42.803Z,72.90
2018-09-27T19:58:12.952Z,73.10
2018-09-27T20:00:43.020Z,73.70
2018-09-27T20:03:13.156Z,73.40
2018-09-27T20:05:42.820Z,73.50
2018-09-27T20:08:13.035Z,74.00
2018-09-27T20:10:43.144Z,74.10
2018-09-27T20:13:13.263Z,74.30
2018-09-27T20:15:43.060Z,74.00
2018-09-27T20:18:12.614Z,74.40
2018-09-27T20:20:42.150Z,75.00
2018-09-27T20:23:11.754Z,74.80
2018-09-27T20:25:41.180Z,74.90
2018-09-27T20:28:11.185Z,75.10
2018-09-27T20:30:41.049Z,75.50
2018-09-27T20:33:10.962Z,75.80
2018-09-27T20:35:40.788Z,75.80
2018-09-27T20:38:10.412Z,76.00
2018-09-27T20:40:40.343Z,76.00
2018-09-27T20:43:09.813Z,75.90
2018-09-27T20:45:39.497Z,76.20
2018-09-27T20:48:09.297Z,76.10
2018-09-27T20:50:38.730Z,76.40
2018-09-27T20:53:08.226Z,76.20
2018-09-27T20:55:37.857Z,76.50
2018-09-27T20:58:07.510Z,76.20
2018-09-27T21:00:37.052Z,76.80
2018-09-27T21:03:06.445Z,77.00
2018-09-27T21:05:36.001Z,77.00
2018-09-27T21:08:05.471Z,77.30
2018-09-27T21:10:34.899Z,77.30
2018-09-27T21:13:04.308Z,77.00
2018-09-27T21:15:33.646Z,77.30
2018-09-27T21:18:02.979Z,77.20
2018-09-27T21:20:32.375Z,77.70
2018-09-27T21:23:01.704Z,77.80
2018-09-27T21:25:31.228Z,78.20
2018-09-27T21:28:00.647Z,78.20
2018-09-27T21:30:29.919Z,78.50
2018-09-27T21:32:59.351Z,79.00
2018-09-27T21:35:28.725Z,79.00
2018-09-27T21:37:58.078Z,79.00
2018-09-27T21:40:27.465Z,79.00
2018-09-27T21:42:56.797Z,79.10
2018-09-27T21:45:26.224Z,79.30
2018-09-27T21:47:55.660Z,78.70
2018-09-27T21:50:25.200Z,78.10
2018-09-27T21:52:54.487Z,77.90
2018-09-27T21:55:23.981Z,77.80
2018-09-27T21:57:53.444Z,78.50
2018-09-27T22:00:22.796Z,77.80
2018-09-27T22:02:52.315Z,78.10
2018-09-27T22:05:21.862Z,77.50
2018-09-27T22:07:51.302Z,77.70
2018-09-27T22:10:20.806Z,78.30
2018-09-27T22:12:50.277Z,78.50
2018-09-27T22:15:19.985Z,78.40
2018-09-27T22:17:49.583Z,77.80
2018-09-27T22:20:19.165Z,77.90
2018-09-27T22:22:48.777Z,77.80
2018-09-27T22:25:18.587Z,78.10
2018-09-27T22:27:48.311Z,77.20
2018-09-27T22:30:17.951Z,76.70
2018-09-27T22:32:47.772Z,76.80
2018-09-27T22:35:17.896Z,76.60
2018-09-27T22:37:47.752Z,76.80
2018-09-27T22:40:17.661Z,76.60
2018-09-27T22:42:47.627Z,76.80
2018-09-27T22:45:17.458Z,77.00
2018-09-27T22:47:47.373Z,76.80
2018-09-27T22:50:17.098Z,77.00
2018-09-27T22:52:46.497Z,77.20
2018-09-27T22:55:15.843Z,77.20
2018-09-27T22:57:45.282Z,77.10
2018-09-27T23:00:14.798Z,76.70
2018-09-27T23:02:44.291Z,76.90
2018-09-27T23:05:13.782Z,76.70
2018-09-27T23:07:43.216Z,76.60
2018-09-27T23:10:12.582Z,76.50
2018-09-27T23:12:41.919Z,76.80
2018-09-27T23:15:11.342Z,76.60
2018-09-27T23:17:40.744Z,76.90
2018-09-27T23:20:11.058Z,77.10
2018-09-27T23:22:40.513Z,77.20
2018-09-27T23:25:10.095Z,77.40
2018-09-27T23:27:39.536Z,77.20
2018-09-27T23:30:08.969Z,77.40
2018-09-27T23:32:38.305Z,77.40
2018-09-27T23:35:07.839Z,77.50
2018-09-27T23:37:37.255Z,77.10
2018-09-27T23:40:06.722Z,77.30
2018-09-27T23:42:36.222Z,77.30
2018-09-27T23:45:05.624Z,77.20
2018-09-27T23:47:34.971Z,77.10
2018-09-27T23:50:04.329Z,77.30
2018-09-27T23:52:33.684Z,78.00
2018-09-27T23:55:02.999Z,77.30
2018-09-27T23:57:32.408Z,77.60
